sensor_id;sensor_type;location;lat;lon;timestamp;temperature;humidity
76211;DHT22;65003;49.518;11.280;2023-03-21T00:00:58;9.60;85.70
76211;DHT22;65003;49.518;11.280;2023-03-21T00:03:25;9.50;86.00
76211;DHT22;65003;49.518;11.280;2023-03-21T00:05:51;9.60;86.10
76211;DHT22;65003;49.518;11.280;2023-03-21T00:08:19;9.60;86.10
76211;DHT22;65003;49.518;11.280;2023-03-21T00:10:46;9.60;86.80
76211;DHT22;65003;49.518;11.280;2023-03-21T00:13:14;9.70;85.70
76211;DHT22;65003;49.518;11.280;2023-03-21T00:15:40;9.70;85.40
76211;DHT22;65003;49.518;11.280;2023-03-21T00:18:22;9.70;85.50
76211;DHT22;65003;49.518;11.280;2023-03-21T00:20:56;9.80;85.00
76211;DHT22;65003;49.518;11.280;2023-03-21T00:23:25;9.80;84.70
76211;DHT22;65003;49.518;11.280;2023-03-21T00:25:52;9.80;85.00
76211;DHT22;65003;49.518;11.280;2023-03-21T00:28:20;9.80;85.20
76211;DHT22;65003;49.518;11.280;2023-03-21T00:30:46;9.70;85.30
76211;DHT22;65003;49.518;11.280;2023-03-21T00:33:12;9.70;85.50
76211;DHT22;65003;49.518;11.280;2023-03-21T00:35:39;9.50;86.40
76211;DHT22;65003;49.518;11.280;2023-03-21T00:38:06;9.40;87.20
76211;DHT22;65003;49.518;11.280;2023-03-21T00:40:33;9.30;87.30
76211;DHT22;65003;49.518;11.280;2023-03-21T00:43:00;9.20;88.10
76211;DHT22;65003;49.518;11.280;2023-03-21T00:45:27;9.10;88.00
76211;DHT22;65003;49.518;11.280;2023-03-21T00:47:54;9.20;88.30
76211;DHT22;65003;49.518;11.280;2023-03-21T00:50:21;9.40;87.50
76211;DHT22;65003;49.518;11.280;2023-03-21T00:52:48;9.50;86.60
76211;DHT22;65003;49.518;11.280;2023-03-21T00:55:16;9.70;86.70
76211;DHT22;65003;49.518;11.280;2023-03-21T00:57:42;9.80;85.30
76211;DHT22;65003;49.518;11.280;2023-03-21T01:00:12;9.90;84.90
76211;DHT22;65003;49.518;11.280;2023-03-21T01:02:37;10.00;85.00
76211;DHT22;65003;49.518;11.280;2023-03-21T01:05:04;10.10;84.20
76211;DHT22;65003;49.518;11.280;2023-03-21T01:07:33;10.00;84.10
76211;DHT22;65003;49.518;11.280;2023-03-21T01:10:00;10.00;84.30
76211;DHT22;65003;49.518;11.280;2023-03-21T01:12:26;10.00;84.20
76211;DHT22;65003;49.518;11.280;2023-03-21T01:14:54;10.00;84.10
76211;DHT22;65003;49.518;11.280;2023-03-21T01:17:21;10.00;83.80
76211;DHT22;65003;49.518;11.280;2023-03-21T01:19:47;10.00;83.80
76211;DHT22;65003;49.518;11.280;2023-03-21T01:22:14;9.90;83.90
76211;DHT22;65003;49.518;11.280;2023-03-21T01:24:41;10.00;83.50
76211;DHT22;65003;49.518;11.280;2023-03-21T01:27:08;10.10;82.80
76211;DHT22;65003;49.518;11.280;2023-03-21T01:29:35;10.00;82.80
76211;DHT22;65003;49.518;11.280;2023-03-21T01:32:02;10.00;82.40
76211;DHT22;65003;49.518;11.280;2023-03-21T01:34:29;10.00;82.70
76211;DHT22;65003;49.518;11.280;2023-03-21T01:36:56;9.90;83.20
76211;DHT22;65003;49.518;11.280;2023-03-21T01:39:22;10.00;83.40
76211;DHT22;65003;49.518;11.280;2023-03-21T01:41:49;10.00;83.30
76211;DHT22;65003;49.518;11.280;2023-03-21T01:44:18;10.00;82.90
76211;DHT22;65003;49.518;11.280;2023-03-21T01:46:46;9.90;82.50
76211;DHT22;65003;49.518;11.280;2023-03-21T01:49:19;9.90;82.80
76211;DHT22;65003;49.518;11.280;2023-03-21T01:51:47;9.80;82.90
76211;DHT22;65003;49.518;11.280;2023-03-21T01:54:14;9.70;83.50
76211;DHT22;65003;49.518;11.280;2023-03-21T01:56:40;9.60;83.80
76211;DHT22;65003;49.518;11.280;2023-03-21T01:59:08;9.60;85.10
76211;DHT22;65003;49.518;11.280;2023-03-21T02:01:34;9.60;84.70
76211;DHT22;65003;49.518;11.280;2023-03-21T02:04:00;9.50;85.00
76211;DHT22;65003;49.518;11.280;2023-03-21T02:06:45;9.50;85.10
76211;DHT22;65003;49.518;11.280;2023-03-21T02:09:12;9.50;85.40
76211;DHT22;65003;49.518;11.280;2023-03-21T02:11:37;9.50;85.50
76211;DHT22;65003;49.518;11.280;2023-03-21T02:14:05;9.40;85.90
76211;DHT22;65003;49.518;11.280;2023-03-21T02:16:35;9.40;85.40
76211;DHT22;65003;49.518;11.280;2023-03-21T02:19:05;9.50;84.70
76211;DHT22;65003;49.518;11.280;2023-03-21T02:21:46;9.50;84.30
76211;DHT22;65003;49.518;11.280;2023-03-21T02:24:21;9.40;84.40
76211;DHT22;65003;49.518;11.280;2023-03-21T02:27:18;9.20;85.10
76211;DHT22;65003;49.518;11.280;2023-03-21T02:32:45;9.10;85.30
76211;DHT22;65003;49.518;11.280;2023-03-21T02:35:28;9.10;85.60
76211;DHT22;65003;49.518;11.280;2023-03-21T02:38:14;9.10;85.80
76211;DHT22;65003;49.518;11.280;2023-03-21T02:40:42;9.10;85.80
76211;DHT22;65003;49.518;11.280;2023-03-21T02:45:48;9.20;85.10
76211;DHT22;65003;49.518;11.280;2023-03-21T02:48:14;9.30;85.00
76211;DHT22;65003;49.518;11.280;2023-03-21T02:50:51;9.20;85.00
76211;DHT22;65003;49.518;11.280;2023-03-21T02:53:18;9.10;85.60
76211;DHT22;65003;49.518;11.280;2023-03-21T02:55:45;9.10;85.90
76211;DHT22;65003;49.518;11.280;2023-03-21T02:58:14;9.10;85.50
76211;DHT22;65003;49.518;11.280;2023-03-21T03:00:39;9.10;85.30
76211;DHT22;65003;49.518;11.280;2023-03-21T03:03:06;9.10;85.20
76211;DHT22;65003;49.518;11.280;2023-03-21T03:05:33;9.10;85.30
76211;DHT22;65003;49.518;11.280;2023-03-21T03:08:16;9.10;85.30
76211;DHT22;65003;49.518;11.280;2023-03-21T03:10:45;9.20;85.20
76211;DHT22;65003;49.518;11.280;2023-03-21T03:13:20;9.20;85.20
76211;DHT22;65003;49.518;11.280;2023-03-21T03:15:54;9.20;84.90
76211;DHT22;65003;49.518;11.280;2023-03-21T03:18:31;9.20;84.50
76211;DHT22;65003;49.518;11.280;2023-03-21T03:21:03;9.30;84.40
76211;DHT22;65003;49.518;11.280;2023-03-21T03:23:45;9.20;84.50
76211;DHT22;65003;49.518;11.280;2023-03-21T03:26:16;9.20;85.30
76211;DHT22;65003;49.518;11.280;2023-03-21T03:28:46;9.20;85.30
76211;DHT22;65003;49.518;11.280;2023-03-21T03:31:11;9.20;84.80
76211;DHT22;65003;49.518;11.280;2023-03-21T03:33:39;9.10;85.10
76211;DHT22;65003;49.518;11.280;2023-03-21T03:36:06;9.10;85.20
76211;DHT22;65003;49.518;11.280;2023-03-21T03:38:33;9.10;86.10
76211;DHT22;65003;49.518;11.280;2023-03-21T03:41:04;9.00;85.40
76211;DHT22;65003;49.518;11.280;2023-03-21T03:43:32;9.00;85.80
76211;DHT22;65003;49.518;11.280;2023-03-21T03:45:57;9.00;85.80
76211;DHT22;65003;49.518;11.280;2023-03-21T03:48:27;8.80;86.50
76211;DHT22;65003;49.518;11.280;2023-03-21T03:50:57;8.80;86.80
76211;DHT22;65003;49.518;11.280;2023-03-21T03:53:24;8.60;87.60
76211;DHT22;65003;49.518;11.280;2023-03-21T03:55:50;8.60;88.60
76211;DHT22;65003;49.518;11.280;2023-03-21T03:58:18;8.40;89.20
76211;DHT22;65003;49.518;11.280;2023-03-21T04:00:44;8.40;89.80
76211;DHT22;65003;49.518;11.280;2023-03-21T04:03:11;8.50;89.50
76211;DHT22;65003;49.518;11.280;2023-03-21T04:05:38;8.70;88.90
76211;DHT22;65003;49.518;11.280;2023-03-21T04:08:04;8.80;88.30
76211;DHT22;65003;49.518;11.280;2023-03-21T04:10:31;8.90;88.30
76211;DHT22;65003;49.518;11.280;2023-03-21T04:12:58;8.80;88.10
76211;DHT22;65003;49.518;11.280;2023-03-21T04:15:27;8.50;88.70
76211;DHT22;65003;49.518;11.280;2023-03-21T04:17:53;8.20;90.00
76211;DHT22;65003;49.518;11.280;2023-03-21T04:20:21;7.90;90.60
76211;DHT22;65003;49.518;11.280;2023-03-21T04:22:48;7.70;91.00
76211;DHT22;65003;49.518;11.280;2023-03-21T04:25:14;7.80;91.10
76211;DHT22;65003;49.518;11.280;2023-03-21T04:27:42;8.10;90.90
76211;DHT22;65003;49.518;11.280;2023-03-21T04:30:09;8.10;90.40
76211;DHT22;65003;49.518;11.280;2023-03-21T04:32:36;8.10;90.20
76211;DHT22;65003;49.518;11.280;2023-03-21T04:35:02;8.10;90.20
76211;DHT22;65003;49.518;11.280;2023-03-21T04:37:29;7.90;90.30
76211;DHT22;65003;49.518;11.280;2023-03-21T04:39:55;7.90;90.60
76211;DHT22;65003;49.518;11.280;2023-03-21T04:42:22;8.00;90.40
76211;DHT22;65003;49.518;11.280;2023-03-21T04:44:49;8.00;90.20
76211;DHT22;65003;49.518;11.280;2023-03-21T04:47:16;7.90;90.20
76211;DHT22;65003;49.518;11.280;2023-03-21T04:49:43;7.90;90.50
76211;DHT22;65003;49.518;11.280;2023-03-21T04:52:10;8.00;90.10
76211;DHT22;65003;49.518;11.280;2023-03-21T04:54:36;8.00;90.20
76211;DHT22;65003;49.518;11.280;2023-03-21T04:57:03;8.20;90.00
76211;DHT22;65003;49.518;11.280;2023-03-21T04:59:30;8.40;89.00
76211;DHT22;65003;49.518;11.280;2023-03-21T05:01:57;8.50;88.90
76211;DHT22;65003;49.518;11.280;2023-03-21T05:04:24;8.60;88.50
76211;DHT22;65003;49.518;11.280;2023-03-21T05:06:50;8.60;88.20
76211;DHT22;65003;49.518;11.280;2023-03-21T05:09:17;8.70;87.70
76211;DHT22;65003;49.518;11.280;2023-03-21T05:11:44;8.80;87.30
76211;DHT22;65003;49.518;11.280;2023-03-21T05:14:13;8.80;87.00
76211;DHT22;65003;49.518;11.280;2023-03-21T05:16:39;8.80;87.00
76211;DHT22;65003;49.518;11.280;2023-03-21T05:19:05;8.80;86.90
76211;DHT22;65003;49.518;11.280;2023-03-21T05:21:32;8.80;86.80
76211;DHT22;65003;49.518;11.280;2023-03-21T05:23:59;8.70;87.20
76211;DHT22;65003;49.518;11.280;2023-03-21T05:26:27;8.60;87.60
76211;DHT22;65003;49.518;11.280;2023-03-21T05:28:53;8.60;87.60
76211;DHT22;65003;49.518;11.280;2023-03-21T05:31:20;8.60;87.90
76211;DHT22;65003;49.518;11.280;2023-03-21T05:33:47;8.60;87.90
76211;DHT22;65003;49.518;11.280;2023-03-21T05:36:15;8.60;87.70
76211;DHT22;65003;49.518;11.280;2023-03-21T05:38:46;8.40;88.40
76211;DHT22;65003;49.518;11.280;2023-03-21T05:41:15;8.20;89.60
76211;DHT22;65003;49.518;11.280;2023-03-21T05:43:41;8.20;90.00
76211;DHT22;65003;49.518;11.280;2023-03-21T05:46:10;8.30;89.60
76211;DHT22;65003;49.518;11.280;2023-03-21T05:48:37;8.30;89.30
76211;DHT22;65003;49.518;11.280;2023-03-21T05:51:04;8.10;89.80
76211;DHT22;65003;49.518;11.280;2023-03-21T05:53:31;7.90;90.20
76211;DHT22;65003;49.518;11.280;2023-03-21T05:55:57;7.80;90.50
76211;DHT22;65003;49.518;11.280;2023-03-21T05:58:24;7.80;90.70
76211;DHT22;65003;49.518;11.280;2023-03-21T06:00:50;7.90;90.60
76211;DHT22;65003;49.518;11.280;2023-03-21T06:03:18;7.80;90.90
76211;DHT22;65003;49.518;11.280;2023-03-21T06:05:44;7.60;91.00
76211;DHT22;65003;49.518;11.280;2023-03-21T06:08:11;7.60;91.40
76211;DHT22;65003;49.518;11.280;2023-03-21T06:10:38;7.60;91.20
76211;DHT22;65003;49.518;11.280;2023-03-21T06:13:05;7.80;91.10
76211;DHT22;65003;49.518;11.280;2023-03-21T06:15:32;8.00;90.60
76211;DHT22;65003;49.518;11.280;2023-03-21T06:17:58;8.40;90.30
76211;DHT22;65003;49.518;11.280;2023-03-21T06:20:25;8.70;89.10
76211;DHT22;65003;49.518;11.280;2023-03-21T06:22:51;8.90;87.90
76211;DHT22;65003;49.518;11.280;2023-03-21T06:25:18;9.10;86.70
76211;DHT22;65003;49.518;11.280;2023-03-21T06:27:44;9.10;86.50
76211;DHT22;65003;49.518;11.280;2023-03-21T06:30:13;9.20;86.40
76211;DHT22;65003;49.518;11.280;2023-03-21T06:32:40;9.30;85.90
76211;DHT22;65003;49.518;11.280;2023-03-21T06:35:08;9.30;86.30
76211;DHT22;65003;49.518;11.280;2023-03-21T06:37:35;9.60;85.40
76211;DHT22;65003;49.518;11.280;2023-03-21T06:40:02;9.80;84.30
76211;DHT22;65003;49.518;11.280;2023-03-21T06:42:29;9.80;83.60
76211;DHT22;65003;49.518;11.280;2023-03-21T06:45:00;9.90;84.40
76211;DHT22;65003;49.518;11.280;2023-03-21T06:47:27;10.20;82.90
76211;DHT22;65003;49.518;11.280;2023-03-21T06:49:54;10.40;82.60
76211;DHT22;65003;49.518;11.280;2023-03-21T06:52:22;10.50;82.30
76211;DHT22;65003;49.518;11.280;2023-03-21T06:54:48;10.70;80.80
76211;DHT22;65003;49.518;11.280;2023-03-21T06:57:16;10.70;80.80
76211;DHT22;65003;49.518;11.280;2023-03-21T06:59:43;10.80;80.20
76211;DHT22;65003;49.518;11.280;2023-03-21T07:02:10;10.90;80.00
76211;DHT22;65003;49.518;11.280;2023-03-21T07:04:37;10.80;79.80
76211;DHT22;65003;49.518;11.280;2023-03-21T07:07:04;10.80;80.20
76211;DHT22;65003;49.518;11.280;2023-03-21T07:09:30;11.00;80.00
76211;DHT22;65003;49.518;11.280;2023-03-21T07:11:57;11.40;78.60
76211;DHT22;65003;49.518;11.280;2023-03-21T07:14:24;11.80;77.20
76211;DHT22;65003;49.518;11.280;2023-03-21T07:16:50;12.20;75.80
76211;DHT22;65003;49.518;11.280;2023-03-21T07:19:17;12.40;75.00
76211;DHT22;65003;49.518;11.280;2023-03-21T07:21:44;12.70;73.60
76211;DHT22;65003;49.518;11.280;2023-03-21T07:24:10;13.20;72.00
76211;DHT22;65003;49.518;11.280;2023-03-21T07:26:39;13.70;69.80
76211;DHT22;65003;49.518;11.280;2023-03-21T07:29:05;14.40;67.40
76211;DHT22;65003;49.518;11.280;2023-03-21T07:31:33;15.10;64.20
76211;DHT22;65003;49.518;11.280;2023-03-21T07:34:01;15.60;62.20
76211;DHT22;65003;49.518;11.280;2023-03-21T07:36:29;16.10;60.10
76211;DHT22;65003;49.518;11.280;2023-03-21T07:38:55;16.70;59.10
76211;DHT22;65003;49.518;11.280;2023-03-21T07:41:23;17.40;57.10
76211;DHT22;65003;49.518;11.280;2023-03-21T07:43:50;18.00;55.70
76211;DHT22;65003;49.518;11.280;2023-03-21T07:46:17;17.90;54.60
76211;DHT22;65003;49.518;11.280;2023-03-21T07:48:43;17.50;54.80
76211;DHT22;65003;49.518;11.280;2023-03-21T07:51:11;17.40;54.90
76211;DHT22;65003;49.518;11.280;2023-03-21T07:53:38;17.10;55.00
76211;DHT22;65003;49.518;11.280;2023-03-21T07:56:05;16.80;56.40
76211;DHT22;65003;49.518;11.280;2023-03-21T07:58:31;16.60;55.30
76211;DHT22;65003;49.518;11.280;2023-03-21T08:00:59;16.40;56.40
76211;DHT22;65003;49.518;11.280;2023-03-21T08:03:25;16.00;56.40
76211;DHT22;65003;49.518;11.280;2023-03-21T08:05:52;15.80;57.40
76211;DHT22;65003;49.518;11.280;2023-03-21T08:08:19;15.90;57.30
76211;DHT22;65003;49.518;11.280;2023-03-21T08:10:45;15.90;57.30
76211;DHT22;65003;49.518;11.280;2023-03-21T08:13:12;15.80;57.40
76211;DHT22;65003;49.518;11.280;2023-03-21T08:15:38;15.70;57.50
76211;DHT22;65003;49.518;11.280;2023-03-21T08:18:06;15.60;57.10
76211;DHT22;65003;49.518;11.280;2023-03-21T08:20:33;15.60;56.50
76211;DHT22;65003;49.518;11.280;2023-03-21T08:22:59;15.60;56.60
76211;DHT22;65003;49.518;11.280;2023-03-21T08:25:26;15.90;55.60
76211;DHT22;65003;49.518;11.280;2023-03-21T08:27:53;16.30;54.30
76211;DHT22;65003;49.518;11.280;2023-03-21T08:30:20;16.90;52.00
76211;DHT22;65003;49.518;11.280;2023-03-21T08:32:46;17.30;50.10
76211;DHT22;65003;49.518;11.280;2023-03-21T08:35:13;18.40;47.70
76211;DHT22;65003;49.518;11.280;2023-03-21T08:37:40;19.60;44.50
76211;DHT22;65003;49.518;11.280;2023-03-21T08:40:09;20.80;41.80
76211;DHT22;65003;49.518;11.280;2023-03-21T08:42:35;22.20;39.00
76211;DHT22;65003;49.518;11.280;2023-03-21T08:45:03;23.60;36.20
76211;DHT22;65003;49.518;11.280;2023-03-21T08:47:30;24.50;32.80
76211;DHT22;65003;49.518;11.280;2023-03-21T08:49:57;25.50;31.40
76211;DHT22;65003;49.518;11.280;2023-03-21T08:52:23;25.80;29.60
76211;DHT22;65003;49.518;11.280;2023-03-21T08:54:50;25.90;29.60
76211;DHT22;65003;49.518;11.280;2023-03-21T08:57:16;26.20;29.00
76211;DHT22;65003;49.518;11.280;2023-03-21T08:59:43;26.80;28.90
76211;DHT22;65003;49.518;11.280;2023-03-21T09:02:12;27.20;28.40
76211;DHT22;65003;49.518;11.280;2023-03-21T09:04:36;27.70;28.30
76211;DHT22;65003;49.518;11.280;2023-03-21T09:07:03;28.20;27.50
76211;DHT22;65003;49.518;11.280;2023-03-21T09:09:30;28.70;27.00
76211;DHT22;65003;49.518;11.280;2023-03-21T09:11:57;29.10;26.20
76211;DHT22;65003;49.518;11.280;2023-03-21T09:14:24;29.10;25.90
76211;DHT22;65003;49.518;11.280;2023-03-21T09:16:50;29.60;25.70
76211;DHT22;65003;49.518;11.280;2023-03-21T09:19:17;30.10;25.10
76211;DHT22;65003;49.518;11.280;2023-03-21T09:21:43;30.50;24.70
76211;DHT22;65003;49.518;11.280;2023-03-21T09:24:11;30.50;24.40
76211;DHT22;65003;49.518;11.280;2023-03-21T09:26:38;30.80;24.40
76211;DHT22;65003;49.518;11.280;2023-03-21T09:29:04;31.30;23.90
76211;DHT22;65003;49.518;11.280;2023-03-21T09:31:31;32.10;22.70
76211;DHT22;65003;49.518;11.280;2023-03-21T09:33:58;32.30;22.40
76211;DHT22;65003;49.518;11.280;2023-03-21T09:36:26;32.90;22.20
76211;DHT22;65003;49.518;11.280;2023-03-21T09:38:54;33.30;21.70
76211;DHT22;65003;49.518;11.280;2023-03-21T09:41:30;33.70;20.90
76211;DHT22;65003;49.518;11.280;2023-03-21T09:46:51;34.80;20.20
76211;DHT22;65003;49.518;11.280;2023-03-21T09:49:18;35.20;19.80
76211;DHT22;65003;49.518;11.280;2023-03-21T09:51:45;35.80;19.50
76211;DHT22;65003;49.518;11.280;2023-03-21T09:54:12;35.60;19.90
76211;DHT22;65003;49.518;11.280;2023-03-21T09:56:39;35.50;20.00
76211;DHT22;65003;49.518;11.280;2023-03-21T09:59:06;35.90;19.80
76211;DHT22;65003;49.518;11.280;2023-03-21T10:01:34;36.70;19.20
76211;DHT22;65003;49.518;11.280;2023-03-21T10:04:05;37.00;18.70
76211;DHT22;65003;49.518;11.280;2023-03-21T10:06:33;37.30;18.40
76211;DHT22;65003;49.518;11.280;2023-03-21T10:09:01;37.50;18.20
76211;DHT22;65003;49.518;11.280;2023-03-21T10:11:27;37.70;18.10
76211;DHT22;65003;49.518;11.280;2023-03-21T10:13:54;37.40;18.00
76211;DHT22;65003;49.518;11.280;2023-03-21T10:21:17;40.60;16.40
76211;DHT22;65003;49.518;11.280;2023-03-21T10:23:41;41.20;16.70
76211;DHT22;65003;49.518;11.280;2023-03-21T10:26:08;41.10;16.50
76211;DHT22;65003;49.518;11.280;2023-03-21T10:28:36;41.70;14.90
76211;DHT22;65003;49.518;11.280;2023-03-21T10:31:02;41.90;15.40
76211;DHT22;65003;49.518;11.280;2023-03-21T10:33:38;42.10;15.20
76211;DHT22;65003;49.518;11.280;2023-03-21T10:36:06;41.90;15.40
76211;DHT22;65003;49.518;11.280;2023-03-21T10:38:33;41.50;15.50
76211;DHT22;65003;49.518;11.280;2023-03-21T10:41:02;41.20;15.80
76211;DHT22;65003;49.518;11.280;2023-03-21T10:43:32;41.40;15.80
76211;DHT22;65003;49.518;11.280;2023-03-21T10:45:57;41.40;15.80
76211;DHT22;65003;49.518;11.280;2023-03-21T10:48:24;41.30;15.70
76211;DHT22;65003;49.518;11.280;2023-03-21T10:50:52;41.20;15.80
76211;DHT22;65003;49.518;11.280;2023-03-21T10:53:26;41.70;15.70
76211;DHT22;65003;49.518;11.280;2023-03-21T10:55:51;42.30;16.00
76211;DHT22;65003;49.518;11.280;2023-03-21T10:58:18;43.00;15.80
76211;DHT22;65003;49.518;11.280;2023-03-21T11:00:45;43.30;16.20
76211;DHT22;65003;49.518;11.280;2023-03-21T11:03:36;42.90;15.30
76211;DHT22;65003;49.518;11.280;2023-03-21T11:06:14;42.50;15.40
76211;DHT22;65003;49.518;11.280;2023-03-21T11:08:46;41.90;16.10
76211;DHT22;65003;49.518;11.280;2023-03-21T11:11:17;42.10;16.50
76211;DHT22;65003;49.518;11.280;2023-03-21T11:13:40;41.70;16.40
76211;DHT22;65003;49.518;11.280;2023-03-21T11:16:08;40.90;17.20
76211;DHT22;65003;49.518;11.280;2023-03-21T11:18:38;38.50;18.10
76211;DHT22;65003;49.518;11.280;2023-03-21T11:21:04;35.70;21.10
76211;DHT22;65003;49.518;11.280;2023-03-21T11:23:30;33.20;21.00
76211;DHT22;65003;49.518;11.280;2023-03-21T11:25:57;30.20;23.00
76211;DHT22;65003;49.518;11.280;2023-03-21T11:28:23;28.10;36.20
76211;DHT22;65003;49.518;11.280;2023-03-21T11:30:51;27.10;26.60
76211;DHT22;65003;49.518;11.280;2023-03-21T11:33:17;26.10;27.80
76211;DHT22;65003;49.518;11.280;2023-03-21T11:35:44;25.60;28.50
76211;DHT22;65003;49.518;11.280;2023-03-21T11:38:31;24.80;29.00
76211;DHT22;65003;49.518;11.280;2023-03-21T11:41:00;24.50;29.20
76211;DHT22;65003;49.518;11.280;2023-03-21T11:43:29;24.10;29.80
76211;DHT22;65003;49.518;11.280;2023-03-21T11:45:57;23.70;31.50
76211;DHT22;65003;49.518;11.280;2023-03-21T11:48:23;23.40;31.30
76211;DHT22;65003;49.518;11.280;2023-03-21T11:50:50;23.10;41.10
76211;DHT22;65003;49.518;11.280;2023-03-21T11:53:39;23.10;34.40
76211;DHT22;65003;49.518;11.280;2023-03-21T11:56:48;23.30;36.00
76211;DHT22;65003;49.518;11.280;2023-03-21T11:59:08;23.10;42.30
76211;DHT22;65003;49.518;11.280;2023-03-21T12:01:48;23.00;33.30
76211;DHT22;65003;49.518;11.280;2023-03-21T12:04:34;22.60;43.50
76211;DHT22;65003;49.518;11.280;2023-03-21T12:06:59;22.20;32.10
76211;DHT22;65003;49.518;11.280;2023-03-21T12:09:39;22.00;36.80
76211;DHT22;65003;49.518;11.280;2023-03-21T12:12:26;21.90;38.20
76211;DHT22;65003;49.518;11.280;2023-03-21T12:15:07;21.90;39.40
76211;DHT22;65003;49.518;11.280;2023-03-21T12:17:38;21.60;42.40
76211;DHT22;65003;49.518;11.280;2023-03-21T12:20:09;21.30;33.00
76211;DHT22;65003;49.518;11.280;2023-03-21T12:22:44;21.20;33.40
76211;DHT22;65003;49.518;11.280;2023-03-21T12:25:14;21.20;33.80
76211;DHT22;65003;49.518;11.280;2023-03-21T12:28:00;21.10;35.10
76211;DHT22;65003;49.518;11.280;2023-03-21T12:30:28;21.10;34.90
76211;DHT22;65003;49.518;11.280;2023-03-21T12:35:41;21.40;33.80
76211;DHT22;65003;49.518;11.280;2023-03-21T12:38:27;21.50;33.30
76211;DHT22;65003;49.518;11.280;2023-03-21T12:41:15;21.60;34.40
76211;DHT22;65003;49.518;11.280;2023-03-21T12:43:48;21.60;34.00
76211;DHT22;65003;49.518;11.280;2023-03-21T12:49:00;21.20;35.20
76211;DHT22;65003;49.518;11.280;2023-03-21T12:51:31;21.00;35.80
76211;DHT22;65003;49.518;11.280;2023-03-21T12:55:06;21.00;36.80
76211;DHT22;65003;49.518;11.280;2023-03-21T12:59:22;21.10;37.10
76211;DHT22;65003;49.518;11.280;2023-03-21T13:01:48;21.30;36.90
76211;DHT22;65003;49.518;11.280;2023-03-21T13:04:39;21.50;36.00
76211;DHT22;65003;49.518;11.280;2023-03-21T13:07:04;21.50;36.40
76211;DHT22;65003;49.518;11.280;2023-03-21T13:09:35;21.30;36.90
76211;DHT22;65003;49.518;11.280;2023-03-21T13:12:05;21.10;36.40
76211;DHT22;65003;49.518;11.280;2023-03-21T13:14:31;20.80;37.20
76211;DHT22;65003;49.518;11.280;2023-03-21T13:17:01;20.40;37.30
76211;DHT22;65003;49.518;11.280;2023-03-21T13:19:29;20.20;38.10
76211;DHT22;65003;49.518;11.280;2023-03-21T13:22:03;19.90;38.80
76211;DHT22;65003;49.518;11.280;2023-03-21T13:24:32;19.80;39.20
76211;DHT22;65003;49.518;11.280;2023-03-21T13:27:31;19.90;39.20
76211;DHT22;65003;49.518;11.280;2023-03-21T13:29:45;19.90;40.10
76211;DHT22;65003;49.518;11.280;2023-03-21T13:32:38;20.00;40.40
76211;DHT22;65003;49.518;11.280;2023-03-21T13:35:22;19.90;40.10
76211;DHT22;65003;49.518;11.280;2023-03-21T13:37:49;19.80;40.00
76211;DHT22;65003;49.518;11.280;2023-03-21T13:40:24;19.60;39.50
76211;DHT22;65003;49.518;11.280;2023-03-21T13:42:51;19.60;40.60
76211;DHT22;65003;49.518;11.280;2023-03-21T13:45:30;19.40;40.50
76211;DHT22;65003;49.518;11.280;2023-03-21T13:47:56;19.30;41.50
76211;DHT22;65003;49.518;11.280;2023-03-21T13:50:26;19.30;42.70
76211;DHT22;65003;49.518;11.280;2023-03-21T13:55:44;19.50;41.70
76211;DHT22;65003;49.518;11.280;2023-03-21T13:58:21;19.70;41.20
76211;DHT22;65003;49.518;11.280;2023-03-21T14:01:01;19.90;40.50
76211;DHT22;65003;49.518;11.280;2023-03-21T14:03:14;19.70;40.70
76211;DHT22;65003;49.518;11.280;2023-03-21T14:05:41;19.60;40.90
76211;DHT22;65003;49.518;11.280;2023-03-21T14:08:13;19.60;41.10
76211;DHT22;65003;49.518;11.280;2023-03-21T14:10:37;19.60;42.20
76211;DHT22;65003;49.518;11.280;2023-03-21T14:13:04;19.70;41.80
76211;DHT22;65003;49.518;11.280;2023-03-21T14:15:42;19.80;41.30
76211;DHT22;65003;49.518;11.280;2023-03-21T14:18:06;19.60;42.00
76211;DHT22;65003;49.518;11.280;2023-03-21T14:20:34;19.30;41.80
76211;DHT22;65003;49.518;11.280;2023-03-21T14:23:03;19.10;42.50
76211;DHT22;65003;49.518;11.280;2023-03-21T14:25:33;19.00;43.70
76211;DHT22;65003;49.518;11.280;2023-03-21T14:28:00;18.90;43.40
76211;DHT22;65003;49.518;11.280;2023-03-21T14:30:42;18.90;44.10
76211;DHT22;65003;49.518;11.280;2023-03-21T14:33:15;18.90;44.90
76211;DHT22;65003;49.518;11.280;2023-03-21T14:35:40;18.90;45.00
76211;DHT22;65003;49.518;11.280;2023-03-21T14:38:07;18.90;43.80
76211;DHT22;65003;49.518;11.280;2023-03-21T14:40:34;19.00;43.70
76211;DHT22;65003;49.518;11.280;2023-03-21T14:43:04;19.20;43.70
76211;DHT22;65003;49.518;11.280;2023-03-21T14:45:32;19.20;43.80
76211;DHT22;65003;49.518;11.280;2023-03-21T14:47:59;19.20;43.70
76211;DHT22;65003;49.518;11.280;2023-03-21T14:53:05;18.90;44.00
76211;DHT22;65003;49.518;11.280;2023-03-21T14:55:31;18.70;44.90
76211;DHT22;65003;49.518;11.280;2023-03-21T14:57:58;18.70;45.70
76211;DHT22;65003;49.518;11.280;2023-03-21T15:00:26;18.60;45.30
76211;DHT22;65003;49.518;11.280;2023-03-21T15:02:53;18.50;46.70
76211;DHT22;65003;49.518;11.280;2023-03-21T15:05:25;18.40;46.10
76211;DHT22;65003;49.518;11.280;2023-03-21T15:07:53;18.40;46.20
76211;DHT22;65003;49.518;11.280;2023-03-21T15:10:20;18.40;46.20
76211;DHT22;65003;49.518;11.280;2023-03-21T15:12:53;18.20;46.90
76211;DHT22;65003;49.518;11.280;2023-03-21T15:15:19;18.20;46.70
76211;DHT22;65003;49.518;11.280;2023-03-21T15:17:46;18.20;47.00
76211;DHT22;65003;49.518;11.280;2023-03-21T15:20:14;18.10;47.50
76211;DHT22;65003;49.518;11.280;2023-03-21T15:22:41;18.00;47.30
76211;DHT22;65003;49.518;11.280;2023-03-21T15:25:07;18.00;46.60
76211;DHT22;65003;49.518;11.280;2023-03-21T15:27:36;17.90;47.00
76211;DHT22;65003;49.518;11.280;2023-03-21T15:30:00;17.80;47.80
76211;DHT22;65003;49.518;11.280;2023-03-21T15:32:28;17.80;48.30
76211;DHT22;65003;49.518;11.280;2023-03-21T15:34:55;17.70;48.40
76211;DHT22;65003;49.518;11.280;2023-03-21T15:37:25;17.70;48.50
76211;DHT22;65003;49.518;11.280;2023-03-21T15:39:53;17.60;48.10
76211;DHT22;65003;49.518;11.280;2023-03-21T15:42:25;17.50;48.10
76211;DHT22;65003;49.518;11.280;2023-03-21T15:44:55;17.50;48.50
76211;DHT22;65003;49.518;11.280;2023-03-21T15:49:59;17.30;49.40
76211;DHT22;65003;49.518;11.280;2023-03-21T15:52:25;17.10;49.80
76211;DHT22;65003;49.518;11.280;2023-03-21T15:54:52;17.10;49.70
76211;DHT22;65003;49.518;11.280;2023-03-21T15:57:22;17.10;49.70
76211;DHT22;65003;49.518;11.280;2023-03-21T15:59:48;17.10;49.70
76211;DHT22;65003;49.518;11.280;2023-03-21T16:02:16;17.00;50.70